ADDS METAR Data INFO
IDs: Format: Raw Decoded Include TAF

Data at: 1508 UTC 23 Oct 2017

KMGC 231455Z AUTO 02009G17KT 5SM -RA OVC006 12/12 A2980 RMK AO2
KMGC 231435Z AUTO 02010G14KT 5SM -RA OVC006 12/12 A2981 RMK AO2
KMGC 231415Z AUTO 01009G18KT 5SM -RA OVC006 12/12 A2982 RMK AO2
KMGC 231355Z AUTO 01011G16KT 5SM -RA OVC006 12/12 A2983 RMK AO2
KMGC 231335Z AUTO 01009G15KT 5SM RA OVC006 12/12 A2984 RMK AO2
KMGC 231315Z AUTO 01007G15KT 4SM RA OVC006 12/12 A2985 RMK AO2
KMGC 231255Z AUTO 02009G16KT 5SM RA OVC006 12/12 A2985 RMK AO2
KMGC 231235Z AUTO 02008G14KT 350V050 5SM RA BKN006 OVC012 12/12 A2984 RMK AO2
KMGC 231215Z AUTO 01008G19KT 7SM +RA BKN008 OVC012 12/12 A2985 RMK AO2
KMGC 231155Z AUTO 01013G19KT 7SM +RA OVC006 12/12 A2984 RMK AO2
KMGC 231135Z AUTO 03009G17KT 7SM RA OVC006 12/12 A2984 RMK AO2
KMGC 231115Z AUTO 02011G16KT 5SM +RA OVC006 12/12 A2985 RMK AO2
KMGC 231055Z AUTO 01007KT 7SM RA OVC006 13/13 A2987 RMK AO2
KMGC 231035Z AUTO 36006KT 10SM RA OVC006 12/12 A2988 RMK AO2
KMGC 231015Z AUTO 01005KT 10SM -RA BKN006 OVC020 13/13 A2988 RMK AO2
KMGC 230955Z AUTO 36006KT 10SM -RA BKN006 BKN014 OVC020 13/13 A2989 RMK AO2
KMGC 230935Z AUTO 00000KT 7SM -RA BKN006 BKN012 OVC022 13/13 A2992 RMK AO2
KMGC 230915Z AUTO 04003KT 2SM +RA OVC006 13/13 A2991 RMK AO2 VIS 1V4
KMGC 230855Z AUTO 02004KT 4SM +RA OVC004 13/13 A2991 RMK AO2
KMGC 230835Z AUTO 01003KT 4SM +RA OVC004 13/13 A2992 RMK AO2
KMGC 230815Z AUTO 36004KT 5SM RA SCT004 BKN007 OVC017 12/12 A2992 RMK AO2
KMGC 230755Z AUTO 00000KT 5SM RA BKN005 OVC017 13/13 A2994 RMK AO2
KMGC 230735Z AUTO 00000KT 5SM RA OVC005 13/13 A2994 RMK AO2
KMGC 230715Z AUTO 00000KT 7SM -RA OVC005 13/13 A2994 RMK AO2
KMGC 230655Z AUTO 00000KT 7SM RA OVC005 13/13 A2995 RMK AO2
KMGC 230635Z AUTO 03004KT 10SM RA OVC005 13/13 A2996 RMK AO2
KMGC 230615Z AUTO 04004KT 10SM RA OVC005 13/13 A2996 RMK AO2
KMGC 230555Z AUTO 03006KT 10SM -RA OVC005 13/13 A2996 RMK AO2
KMGC 230535Z AUTO 02004KT 10SM -DZ BKN005 OVC010 13/13 A2997 RMK AO2
KMGC 230515Z AUTO 03003KT 10SM RA OVC005 13/13 A2998 RMK AO2
KMGC 230455Z AUTO 35003KT 10SM -RA BKN005 OVC010 13/13 A2999 RMK AO2
KMGC 230435Z AUTO 02004KT 10SM RA OVC005 13/13 A3000 RMK AO2
KMGC 230415Z AUTO 02003KT 10SM RA OVC005 13/13 A3000 RMK AO2
KMGC 230355Z AUTO 01003KT 10SM OVC005 12/12 A3000 RMK AO2
KMGC 230335Z AUTO 01004KT 10SM -RA OVC005 12/12 A3000 RMK AO2
KMGC 230315Z AUTO 36004KT 10SM -RA OVC005 12/12 A3001 RMK AO2
KMGC 230255Z AUTO 02004KT 10SM -RA OVC005 12/12 A3002 RMK AO2
KMGC 230235Z AUTO 01007KT 10SM OVC005 12/12 A3002 RMK AO2
KMGC 230215Z AUTO 02007KT 10SM OVC005 12/12 A3002 RMK AO2
KMGC 230155Z AUTO 36010KT 10SM OVC005 12/12 A3002 RMK AO2
KMGC 230135Z AUTO 01008KT 10SM OVC005 12/12 A3002 RMK AO2
KMGC 230115Z AUTO 36007KT 10SM DZ OVC005 12/12 A3003 RMK AO2
KMGC 230055Z AUTO 35006KT 10SM DZ OVC003 12/12 A3003 RMK AO2
KMGC 230035Z AUTO 35006KT 7SM DZ OVC003 12/12 A3003 RMK AO2
KMGC 230015Z AUTO 34007KT 7SM RA OVC003 12/12 A3004 RMK AO2
KMGC 222355Z AUTO 34005KT 5SM +RA OVC003 12/12 A3004 RMK AO2
KMGC 222335Z AUTO 33006KT 4SM +DZ OVC003 12/12 A3003 RMK AO2
KMGC 222315Z AUTO 35008KT 5SM +DZ OVC003 13/13 A3002 RMK AO2
KMGC 222255Z AUTO 33005KT 3SM +RA OVC003 13/13 A3002 RMK AO2
KMGC 222235Z AUTO 32008G15KT 2 1/2SM SN BKN003 BKN007 OVC035 13/13 A3001 RMK AO2 VIS 1 1/4V5
KMGC 222215Z AUTO 31010G16KT 10SM SCT007 BKN035 OVC047 18/17 A2999 RMK AO2
KMGC 222155Z AUTO 19009KT 10SM DZ OVC047 18/18 A2997 RMK AO2
KMGC 222135Z AUTO 19005KT 7SM RA SCT030 OVC046 18/18 A2997 RMK AO2
KMGC 222115Z AUTO 21005KT 4SM -RA SCT030 BKN041 OVC050 18/17 A2998 RMK AO2
KMGC 222055Z AUTO 21010G19KT 7SM +RA OVC043 20/16 A2998 RMK AO2
KMGC 222035Z AUTO 20012G16KT 10SM OVC045 22/15 A2996 RMK AO2
KMGC 222015Z AUTO 19009G15KT 10SM SCT038 OVC045 22/15 A2997 RMK AO2
KMGC 221955Z AUTO 19006KT 10SM BKN039 BKN120 22/15 A2996 RMK AO2
KMGC 221935Z AUTO 19015G21KT 10SM SCT050 BKN120 22/15 A2996 RMK AO2
KMGC 221915Z AUTO 19017G23KT 10SM SCT036 BKN050 BKN110 22/15 A2995 RMK AO2
KMGC 221855Z AUTO 18012G16KT 10SM 23/15 A2995 RMK AO2 PWINO
KMGC 221635Z AUTO 18012G17KT 10SM SCT110 21/14 A3001 RMK AO2
KMGC 221615Z AUTO 19013G22KT 10SM SCT047 SCT060 SCT085 20/13 A3001 RMK AO2
KMGC 221555Z AUTO 20012G21KT 10SM SCT047 SCT110 21/13 A3001 RMK AO2
KMGC 221535Z AUTO 18010G17KT 10SM SCT049 SCT120 20/13 A3001 RMK AO2
KMGC 221515Z AUTO 18014G19KT 10SM SCT047 SCT120 20/13 A3001 RMK AO2
KMGC 221455Z AUTO 18011G20KT 10SM CLR 20/13 A3001 RMK AO2
KMGC 221435Z AUTO 17010G17KT 140V220 10SM CLR 19/13 A3001 RMK AO2
KMGC 221415Z AUTO 18012G17KT 10SM CLR 19/12 A3001 RMK AO2
KMGC 221355Z AUTO 18011G17KT 10SM CLR 18/12 A3002 RMK AO2
KMGC 221335Z AUTO 18008G15KT 140V200 10SM CLR 18/12 A3002 RMK AO2
KMGC 221255Z AUTO 18010G16KT 140V210 10SM SCT085 SCT110 17/11 A3002 RMK AO2
KMGC 221235Z AUTO 18008G17KT 10SM SCT085 17/11 A3001 RMK AO2
KMGC 221215Z AUTO 18009G14KT 130V190 10SM CLR 17/11 A3000 RMK AO2
KMGC 221155Z AUTO 18006G14KT 10SM CLR 17/11 A2999 RMK AO2
KMGC 221055Z AUTO 18008G15KT 10SM SCT075 SCT095 OVC110 17/10 A3001 RMK AO2
KMGC 221035Z AUTO 18010G14KT 10SM SCT095 OVC110 17/10 A3001 RMK AO2
KMGC 221015Z AUTO 18008G14KT 10SM OVC110 17/10 A3000 RMK AO2
KMGC 220955Z AUTO 17006KT 10SM SCT085 BKN110 17/10 A3000 RMK AO2
KMGC 220935Z AUTO 17007KT 10SM SCT085 SCT110 17/10 A3000 RMK AO2
KMGC 220915Z AUTO 18009KT 10SM SCT065 17/10 A3001 RMK AO2
KMGC 220855Z AUTO 18008KT 10SM SCT065 17/10 A3001 RMK AO2
KMGC 220835Z AUTO 17006KT 10SM CLR 17/10 A3002 RMK AO2
KMGC 220815Z AUTO 17008KT 10SM SCT070 SCT110 17/10 A3003 RMK AO2
KMGC 220755Z AUTO 17006KT 10SM SCT110 17/10 A3004 RMK AO2
KMGC 220735Z AUTO 19006G16KT 150V210 10SM SCT100 17/10 A3005 RMK AO2
KMGC 220715Z AUTO 17007KT 10SM BKN100 17/10 A3005 RMK AO2
KMGC 220655Z AUTO 17009G16KT 10SM SCT070 18/10 A3006 RMK AO2
KMGC 220635Z AUTO 18008G14KT 10SM SCT070 17/10 A3007 RMK AO2
KMGC 220615Z AUTO 17010KT 10SM CLR 17/09 A3007 RMK AO2
KMGC 220555Z AUTO 17008KT 10SM CLR 18/10 A3007 RMK AO2
KMGC 220535Z AUTO 17007KT 140V200 10SM SCT110 18/10 A3007 RMK AO2
KMGC 220515Z AUTO 18008KT 10SM BKN110 18/10 A3007 RMK AO2
KMGC 220455Z AUTO 18009KT 10SM BKN110 18/10 A3007 RMK AO2
KMGC 220435Z AUTO 18008KT 10SM CLR 18/10 A3007 RMK AO2
KMGC 220415Z AUTO 18009G14KT 10SM CLR 18/10 A3006 RMK AO2
KMGC 220315Z AUTO 17008KT 120V190 10SM CLR 18/11 A3006 RMK AO2